sensor_id;sensor_type;location;lat;lon;timestamp;pressure;altitude;pressure_sealevel;temperature;humidity
21096;BME280;10706;49.036;12.112;2023-02-02T00:01:56;97764.31;;;4.29;78.69
21096;BME280;10706;49.036;12.112;2023-02-02T00:04:26;97774.63;;;4.24;79.00
21096;BME280;10706;49.036;12.112;2023-02-02T00:06:53;97756.19;;;4.31;78.62
21096;BME280;10706;49.036;12.112;2023-02-02T00:09:22;97759.69;;;4.38;78.20
21096;BME280;10706;49.036;12.112;2023-02-02T00:11:49;97785.72;;;4.41;78.17
21096;BME280;10706;49.036;12.112;2023-02-02T00:14:16;97783.31;;;4.46;77.58
21096;BME280;10706;49.036;12.112;2023-02-02T00:16:50;97781.72;;;4.52;76.51
21096;BME280;10706;49.036;12.112;2023-02-02T00:19:19;97783.13;;;4.54;77.12
21096;BME280;10706;49.036;12.112;2023-02-02T00:21:46;97779.56;;;4.62;75.98
21096;BME280;10706;49.036;12.112;2023-02-02T00:24:15;97774.44;;;4.60;76.71
21096;BME280;10706;49.036;12.112;2023-02-02T00:26:48;97772.56;;;4.54;76.40
21096;BME280;10706;49.036;12.112;2023-02-02T00:29:22;97781.53;;;4.53;76.83
21096;BME280;10706;49.036;12.112;2023-02-02T00:31:48;97756.13;;;4.59;76.30
21096;BME280;10706;49.036;12.112;2023-02-02T00:34:15;97773.22;;;4.56;76.30
21096;BME280;10706;49.036;12.112;2023-02-02T00:36:42;97772.78;;;4.53;77.22
21096;BME280;10706;49.036;12.112;2023-02-02T00:39:16;97780.91;;;4.51;76.88
21096;BME280;10706;49.036;12.112;2023-02-02T00:41:43;97789.09;;;4.56;76.89
21096;BME280;10706;49.036;12.112;2023-02-02T00:44:09;97783.38;;;4.59;76.14
21096;BME280;10706;49.036;12.112;2023-02-02T00:46:53;97786.22;;;4.58;76.20
21096;BME280;10706;49.036;12.112;2023-02-02T00:49:19;97793.34;;;4.57;76.39
21096;BME280;10706;49.036;12.112;2023-02-02T00:51:44;97788.44;;;4.54;77.31
21096;BME280;10706;49.036;12.112;2023-02-02T00:54:10;97776.25;;;4.53;77.59
21096;BME280;10706;49.036;12.112;2023-02-02T00:56:36;97794.13;;;4.51;76.94
21096;BME280;10706;49.036;12.112;2023-02-02T00:59:02;97793.34;;;4.57;77.75
21096;BME280;10706;49.036;12.112;2023-02-02T01:01:28;97813.00;;;4.48;78.33
21096;BME280;10706;49.036;12.112;2023-02-02T01:03:54;97789.56;;;4.38;79.46
21096;BME280;10706;49.036;12.112;2023-02-02T01:06:19;97808.19;;;4.23;80.34
21096;BME280;10706;49.036;12.112;2023-02-02T01:08:45;97804.47;;;4.18;81.73
21096;BME280;10706;49.036;12.112;2023-02-02T01:11:11;97811.53;;;4.11;82.00
21096;BME280;10706;49.036;12.112;2023-02-02T01:13:37;97799.69;;;4.00;82.43
21096;BME280;10706;49.036;12.112;2023-02-02T01:16:04;97813.00;;;3.92;84.27
21096;BME280;10706;49.036;12.112;2023-02-02T01:18:30;97807.81;;;3.77;85.21
21096;BME280;10706;49.036;12.112;2023-02-02T01:21:04;97824.09;;;3.80;86.04
21096;BME280;10706;49.036;12.112;2023-02-02T01:23:31;97815.34;;;3.58;88.37
21096;BME280;10706;49.036;12.112;2023-02-02T01:26:00;97820.91;;;3.42;90.07
21096;BME280;10706;49.036;12.112;2023-02-02T01:28:27;97821.53;;;3.44;89.03
21096;BME280;10706;49.036;12.112;2023-02-02T01:30:54;97834.91;;;3.42;90.83
21096;BME280;10706;49.036;12.112;2023-02-02T01:33:20;97837.91;;;3.39;90.84
21096;BME280;10706;49.036;12.112;2023-02-02T01:35:48;97829.75;;;3.34;91.33
21096;BME280;10706;49.036;12.112;2023-02-02T01:38:14;97836.38;;;3.30;92.75
21096;BME280;10706;49.036;12.112;2023-02-02T01:40:46;97844.72;;;3.12;94.54
21096;BME280;10706;49.036;12.112;2023-02-02T01:43:55;97841.34;;;3.03;95.00
21096;BME280;10706;49.036;12.112;2023-02-02T01:46:31;97849.16;;;3.11;93.84
21096;BME280;10706;49.036;12.112;2023-02-02T01:49:14;97875.28;;;3.06;96.16
21096;BME280;10706;49.036;12.112;2023-02-02T01:51:54;97881.66;;;2.97;97.13
21096;BME280;10706;49.036;12.112;2023-02-02T01:54:28;97882.75;;;2.73;93.59
21096;BME280;10706;49.036;12.112;2023-02-02T01:57:06;97872.28;;;2.12;96.51
21096;BME280;10706;49.036;12.112;2023-02-02T01:59:34;97880.38;;;1.64;97.25
21096;BME280;10706;49.036;12.112;2023-02-02T02:02:01;97858.84;;;1.38;98.47
21096;BME280;10706;49.036;12.112;2023-02-02T02:04:29;97889.00;;;1.27;99.00
21096;BME280;10706;49.036;12.112;2023-02-02T02:06:56;97852.94;;;1.04;98.98
21096;BME280;10706;49.036;12.112;2023-02-02T02:09:22;97892.00;;;1.15;100.00
21096;BME280;10706;49.036;12.112;2023-02-02T02:11:48;97883.16;;;1.08;98.92
21096;BME280;10706;49.036;12.112;2023-02-02T02:14:14;97903.94;;;0.87;99.58
21096;BME280;10706;49.036;12.112;2023-02-02T02:17:22;97897.44;;;0.66;100.00
21096;BME280;10706;49.036;12.112;2023-02-02T02:32:24;97919.16;;;0.03;100.00
21096;BME280;10706;49.036;12.112;2023-02-02T02:38:29;97922.41;;;-0.20;100.00
21096;BME280;10706;49.036;12.112;2023-02-02T02:41:03;97924.88;;;-0.18;100.00
21096;BME280;10706;49.036;12.112;2023-02-02T02:43:38;97933.38;;;-0.33;100.00
21096;BME280;10706;49.036;12.112;2023-02-02T02:46:07;97926.97;;;-0.38;100.00
21096;BME280;10706;49.036;12.112;2023-02-02T02:48:33;97923.84;;;-0.34;100.00
21096;BME280;10706;49.036;12.112;2023-02-02T02:53:59;97916.00;;;-0.17;100.00
21096;BME280;10706;49.036;12.112;2023-02-02T03:02:49;97936.78;;;-0.49;100.00
21096;BME280;10706;49.036;12.112;2023-02-02T03:05:46;97923.34;;;-0.46;100.00
21096;BME280;10706;49.036;12.112;2023-02-02T03:08:39;97923.69;;;-0.49;100.00
21096;BME280;10706;49.036;12.112;2023-02-02T03:11:10;97928.22;;;-0.51;100.00
21096;BME280;10706;49.036;12.112;2023-02-02T03:13:38;97934.31;;;-0.50;100.00
21096;BME280;10706;49.036;12.112;2023-02-02T03:16:04;97933.81;;;-0.54;100.00
21096;BME280;10706;49.036;12.112;2023-02-02T03:18:32;97944.66;;;-0.49;100.00
21096;BME280;10706;49.036;12.112;2023-02-02T03:20:58;97931.34;;;-0.55;100.00
21096;BME280;10706;49.036;12.112;2023-02-02T03:23:24;97947.28;;;-0.49;100.00
21096;BME280;10706;49.036;12.112;2023-02-02T03:25:50;97950.72;;;-0.48;100.00
21096;BME280;10706;49.036;12.112;2023-02-02T03:28:17;97958.44;;;-0.47;100.00
21096;BME280;10706;49.036;12.112;2023-02-02T03:30:44;97955.81;;;-0.47;100.00
21096;BME280;10706;49.036;12.112;2023-02-02T03:33:12;97949.06;;;-0.49;100.00
21096;BME280;10706;49.036;12.112;2023-02-02T03:35:38;97949.22;;;-0.51;100.00
21096;BME280;10706;49.036;12.112;2023-02-02T03:38:04;97952.69;;;-0.50;100.00
21096;BME280;10706;49.036;12.112;2023-02-02T03:40:30;97957.09;;;-0.51;100.00
21096;BME280;10706;49.036;12.112;2023-02-02T03:42:56;97948.56;;;-0.53;100.00
21096;BME280;10706;49.036;12.112;2023-02-02T03:45:21;97955.47;;;-0.52;100.00
21096;BME280;10706;49.036;12.112;2023-02-02T03:47:47;97961.66;;;-0.53;100.00
21096;BME280;10706;49.036;12.112;2023-02-02T03:50:13;97964.94;;;-0.51;100.00
21096;BME280;10706;49.036;12.112;2023-02-02T03:52:39;97967.09;;;-0.54;100.00
21096;BME280;10706;49.036;12.112;2023-02-02T03:55:06;97973.47;;;-0.57;100.00
21096;BME280;10706;49.036;12.112;2023-02-02T03:57:32;97970.19;;;-0.59;100.00
21096;BME280;10706;49.036;12.112;2023-02-02T03:59:57;97975.56;;;-0.61;100.00
21096;BME280;10706;49.036;12.112;2023-02-02T04:02:23;97984.75;;;-0.56;100.00
21096;BME280;10706;49.036;12.112;2023-02-02T04:04:49;97980.38;;;-0.56;100.00
21096;BME280;10706;49.036;12.112;2023-02-02T04:07:14;97978.84;;;-0.59;100.00
21096;BME280;10706;49.036;12.112;2023-02-02T04:09:40;97986.41;;;-0.55;100.00
21096;BME280;10706;49.036;12.112;2023-02-02T04:12:06;97983.00;;;-0.56;100.00
21096;BME280;10706;49.036;12.112;2023-02-02T04:14:32;97978.56;;;-0.55;100.00
21096;BME280;10706;49.036;12.112;2023-02-02T04:16:58;97988.09;;;-0.54;100.00
21096;BME280;10706;49.036;12.112;2023-02-02T04:19:24;97987.91;;;-0.53;100.00
21096;BME280;10706;49.036;12.112;2023-02-02T04:21:50;97981.84;;;-0.53;100.00
21096;BME280;10706;49.036;12.112;2023-02-02T04:24:15;97983.50;;;-0.52;100.00
21096;BME280;10706;49.036;12.112;2023-02-02T04:26:41;97986.13;;;-0.52;100.00
21096;BME280;10706;49.036;12.112;2023-02-02T04:29:07;97982.66;;;-0.53;100.00
21096;BME280;10706;49.036;12.112;2023-02-02T04:31:33;97982.34;;;-0.50;100.00
21096;BME280;10706;49.036;12.112;2023-02-02T04:34:00;97991.03;;;-0.49;100.00
21096;BME280;10706;49.036;12.112;2023-02-02T04:36:26;97991.03;;;-0.49;100.00
21096;BME280;10706;49.036;12.112;2023-02-02T04:38:53;97990.06;;;-0.48;100.00
21096;BME280;10706;49.036;12.112;2023-02-02T04:41:20;97983.81;;;-0.47;100.00
21096;BME280;10706;49.036;12.112;2023-02-02T04:43:46;97989.06;;;-0.47;100.00
21096;BME280;10706;49.036;12.112;2023-02-02T04:46:13;97996.13;;;-0.48;100.00
21096;BME280;10706;49.036;12.112;2023-02-02T04:48:39;97996.13;;;-0.48;100.00
21096;BME280;10706;49.036;12.112;2023-02-02T04:51:12;97986.28;;;-0.46;100.00
21096;BME280;10706;49.036;12.112;2023-02-02T04:53:39;97991.53;;;-0.46;100.00
21096;BME280;10706;49.036;12.112;2023-02-02T04:56:08;97988.91;;;-0.46;100.00
21096;BME280;10706;49.036;12.112;2023-02-02T04:58:34;97993.19;;;-0.45;100.00
21096;BME280;10706;49.036;12.112;2023-02-02T05:01:00;97999.91;;;-0.42;100.00
21096;BME280;10706;49.036;12.112;2023-02-02T05:03:26;97990.22;;;-0.42;100.00
21096;BME280;10706;49.036;12.112;2023-02-02T05:06:01;97988.59;;;-0.43;100.00
21096;BME280;10706;49.036;12.112;2023-02-02T05:08:27;98008.28;;;-0.38;100.00
21096;BME280;10706;49.036;12.112;2023-02-02T05:10:53;98003.34;;;-0.42;100.00
21096;BME280;10706;49.036;12.112;2023-02-02T05:13:18;98011.56;;;-0.45;100.00
21096;BME280;10706;49.036;12.112;2023-02-02T05:15:44;98014.47;;;-0.48;100.00
21096;BME280;10706;49.036;12.112;2023-02-02T05:18:10;98027.75;;;-0.49;100.00
21096;BME280;10706;49.036;12.112;2023-02-02T05:20:36;98018.41;;;-0.52;100.00
21096;BME280;10706;49.036;12.112;2023-02-02T05:23:01;98020.22;;;-0.52;100.00
21096;BME280;10706;49.036;12.112;2023-02-02T05:25:27;98022.84;;;-0.52;100.00
21096;BME280;10706;49.036;12.112;2023-02-02T05:27:53;98025.75;;;-0.55;100.00
21096;BME280;10706;49.036;12.112;2023-02-02T05:30:18;98024.78;;;-0.54;100.00
21096;BME280;10706;49.036;12.112;2023-02-02T05:32:44;98029.84;;;-0.53;100.00
21096;BME280;10706;49.036;12.112;2023-02-02T05:35:10;98016.94;;;-0.54;100.00
21096;BME280;10706;49.036;12.112;2023-02-02T05:37:36;98029.69;;;-0.51;100.00
21096;BME280;10706;49.036;12.112;2023-02-02T05:40:02;98023.66;;;-0.52;100.00
21096;BME280;10706;49.036;12.112;2023-02-02T05:42:28;98032.84;;;-0.48;100.00
21096;BME280;10706;49.036;12.112;2023-02-02T05:44:54;98033.13;;;-0.51;100.00
21096;BME280;10706;49.036;12.112;2023-02-02T05:47:20;98033.97;;;-0.50;100.00
21096;BME280;10706;49.036;12.112;2023-02-02T05:49:46;98039.38;;;-0.52;100.00
21096;BME280;10706;49.036;12.112;2023-02-02T05:52:18;98045.28;;;-0.50;100.00
21096;BME280;10706;49.036;12.112;2023-02-02T05:54:45;98043.47;;;-0.49;100.00
21096;BME280;10706;49.036;12.112;2023-02-02T05:57:11;98040.84;;;-0.49;100.00
21096;BME280;10706;49.036;12.112;2023-02-02T05:59:37;98039.06;;;-0.49;100.00
21096;BME280;10706;49.036;12.112;2023-02-02T06:02:02;98038.91;;;-0.47;100.00
21096;BME280;10706;49.036;12.112;2023-02-02T06:04:28;98038.22;;;-0.49;100.00
21096;BME280;10706;49.036;12.112;2023-02-02T06:06:54;98043.31;;;-0.48;100.00
21096;BME280;10706;49.036;12.112;2023-02-02T06:09:20;98048.56;;;-0.48;100.00
21096;BME280;10706;49.036;12.112;2023-02-02T06:11:45;98052.66;;;-0.45;100.00
21096;BME280;10706;49.036;12.112;2023-02-02T06:14:14;98049.25;;;-0.46;100.00
21096;BME280;10706;49.036;12.112;2023-02-02T06:16:39;98048.94;;;-0.43;100.00
21096;BME280;10706;49.036;12.112;2023-02-02T06:19:05;98041.38;;;-0.46;100.00
21096;BME280;10706;49.036;12.112;2023-02-02T06:21:31;98042.88;;;-0.43;100.00
21096;BME280;10706;49.036;12.112;2023-02-02T06:23:57;98038.44;;;-0.43;100.00
21096;BME280;10706;49.036;12.112;2023-02-02T06:26:24;98043.69;;;-0.43;100.00
21096;BME280;10706;49.036;12.112;2023-02-02T06:28:52;98041.72;;;-0.41;100.00
21096;BME280;10706;49.036;12.112;2023-02-02T06:31:19;98033.19;;;-0.43;100.00
21096;BME280;10706;49.036;12.112;2023-02-02T06:33:46;98042.69;;;-0.42;100.00
21096;BME280;10706;49.036;12.112;2023-02-02T06:36:13;98044.19;;;-0.39;100.00
21096;BME280;10706;49.036;12.112;2023-02-02T06:38:39;98029.91;;;-0.45;100.00
21096;BME280;10706;49.036;12.112;2023-02-02T06:41:05;98045.00;;;-0.38;100.00
21096;BME280;10706;49.036;12.112;2023-02-02T06:43:32;98044.03;;;-0.37;100.00
21096;BME280;10706;49.036;12.112;2023-02-02T06:46:01;98045.31;;;-0.42;100.00
21096;BME280;10706;49.036;12.112;2023-02-02T06:48:27;98057.16;;;-0.37;100.00
21096;BME280;10706;49.036;12.112;2023-02-02T06:51:02;98061.72;;;-0.40;100.00
21096;BME280;10706;49.036;12.112;2023-02-02T06:53:28;98072.19;;;-0.40;100.00
21096;BME280;10706;49.036;12.112;2023-02-02T06:56:04;98066.63;;;-0.45;100.00
21096;BME280;10706;49.036;12.112;2023-02-02T06:58:31;98077.44;;;-0.40;100.00
21096;BME280;10706;49.036;12.112;2023-02-02T07:01:10;98071.38;;;-0.40;100.00
21096;BME280;10706;49.036;12.112;2023-02-02T07:03:36;98062.03;;;-0.43;100.00
21096;BME280;10706;49.036;12.112;2023-02-02T07:06:17;98060.91;;;-0.40;100.00
21096;BME280;10706;49.036;12.112;2023-02-02T07:08:43;98066.00;;;-0.38;100.00
21096;BME280;10706;49.036;12.112;2023-02-02T07:11:09;98068.78;;;-0.40;100.00
21096;BME280;10706;49.036;12.112;2023-02-02T07:13:36;98069.28;;;-0.36;100.00
21096;BME280;10706;49.036;12.112;2023-02-02T07:16:05;98071.09;;;-0.37;100.00
21096;BME280;10706;49.036;12.112;2023-02-02T07:18:32;98078.16;;;-0.37;100.00
21096;BME280;10706;49.036;12.112;2023-02-02T07:20:59;98077.50;;;-0.31;100.00
21096;BME280;10706;49.036;12.112;2023-02-02T07:23:28;98074.22;;;-0.33;100.00
21096;BME280;10706;49.036;12.112;2023-02-02T07:26:08;98074.22;;;-0.33;100.00
21096;BME280;10706;49.036;12.112;2023-02-02T07:28:35;98075.03;;;-0.33;100.00
21096;BME280;10706;49.036;12.112;2023-02-02T07:31:12;98076.84;;;-0.33;100.00
21096;BME280;10706;49.036;12.112;2023-02-02T07:33:39;98071.44;;;-0.32;100.00
21096;BME280;10706;49.036;12.112;2023-02-02T07:36:06;98072.25;;;-0.31;100.00
21096;BME280;10706;49.036;12.112;2023-02-02T07:38:36;98070.16;;;-0.28;100.00
21096;BME280;10706;49.036;12.112;2023-02-02T07:41:03;98071.63;;;-0.25;100.00
21096;BME280;10706;49.036;12.112;2023-02-02T07:43:35;98075.72;;;-0.23;100.00
21096;BME280;10706;49.036;12.112;2023-02-02T07:46:03;98084.75;;;-0.25;100.00
21096;BME280;10706;49.036;12.112;2023-02-02T07:48:31;98075.72;;;-0.23;100.00
21096;BME280;10706;49.036;12.112;2023-02-02T07:50:59;98078.25;;;-0.05;100.00
21096;BME280;10706;49.036;12.112;2023-02-02T07:53:26;98085.59;;;-0.16;100.00
21096;BME280;10706;49.036;12.112;2023-02-02T07:55:52;98092.03;;;-0.11;100.00
21096;BME280;10706;49.036;12.112;2023-02-02T07:58:17;98086.28;;;-0.06;100.00
21096;BME280;10706;49.036;12.112;2023-02-02T08:00:59;98090.72;;;-0.07;100.00
21096;BME280;10706;49.036;12.112;2023-02-02T08:03:25;98092.84;;;-0.02;100.00
21096;BME280;10706;49.036;12.112;2023-02-02T08:05:50;98092.91;;;0.06;100.00
21096;BME280;10706;49.036;12.112;2023-02-02T08:08:16;98099.31;;;0.12;100.00
21096;BME280;10706;49.036;12.112;2023-02-02T08:10:52;98093.72;;;0.15;100.00
21096;BME280;10706;49.036;12.112;2023-02-02T08:13:19;98093.56;;;0.16;100.00
21096;BME280;10706;49.036;12.112;2023-02-02T08:15:45;98090.78;;;0.18;100.00
21096;BME280;10706;49.036;12.112;2023-02-02T08:18:11;98100.66;;;0.24;100.00
21096;BME280;10706;49.036;12.112;2023-02-02T08:20:37;98102.47;;;0.24;100.00
21096;BME280;10706;49.036;12.112;2023-02-02T08:23:03;98104.63;;;0.28;100.00
21096;BME280;10706;49.036;12.112;2023-02-02T08:25:29;98104.13;;;0.25;100.00
21096;BME280;10706;49.036;12.112;2023-02-02T08:27:55;98104.94;;;0.25;100.00
21096;BME280;10706;49.036;12.112;2023-02-02T08:30:23;98116.75;;;0.29;100.00
21096;BME280;10706;49.036;12.112;2023-02-02T08:32:49;98110.69;;;0.29;100.00
21096;BME280;10706;49.036;12.112;2023-02-02T08:35:15;98109.03;;;0.28;100.00
21096;BME280;10706;49.036;12.112;2023-02-02T08:37:46;98108.88;;;0.21;100.00
21096;BME280;10706;49.036;12.112;2023-02-02T08:40:12;98114.78;;;0.23;100.00
21096;BME280;10706;49.036;12.112;2023-02-02T08:42:38;98113.78;;;0.24;100.00
21096;BME280;10706;49.036;12.112;2023-02-02T08:45:05;98112.31;;;0.30;100.00
21096;BME280;10706;49.036;12.112;2023-02-02T08:47:33;98112.00;;;0.33;100.00
21096;BME280;10706;49.036;12.112;2023-02-02T08:49:59;98115.28;;;0.35;100.00
21096;BME280;10706;49.036;12.112;2023-02-02T08:52:25;98114.47;;;0.34;100.00
21096;BME280;10706;49.036;12.112;2023-02-02T08:55:15;98114.13;;;0.37;100.00
21096;BME280;10706;49.036;12.112;2023-02-02T08:58:04;98121.06;;;0.47;100.00
21096;BME280;10706;49.036;12.112;2023-02-02T09:00:30;98122.72;;;0.48;100.00
21096;BME280;10706;49.036;12.112;2023-02-02T09:02:56;98120.38;;;0.36;100.00
21096;BME280;10706;49.036;12.112;2023-02-02T09:05:22;98117.91;;;0.35;100.00
21096;BME280;10706;49.036;12.112;2023-02-02T09:07:47;98125.28;;;0.31;100.00
21096;BME280;10706;49.036;12.112;2023-02-02T09:10:14;98117.75;;;0.28;100.00
21096;BME280;10706;49.036;12.112;2023-02-02T09:12:39;98128.56;;;0.33;100.00
21096;BME280;10706;49.036;12.112;2023-02-02T09:15:05;98134.50;;;0.35;100.00
21096;BME280;10706;49.036;12.112;2023-02-02T09:17:31;98133.88;;;0.42;100.00
21096;BME280;10706;49.036;12.112;2023-02-02T09:19:57;98129.91;;;0.37;100.00
21096;BME280;10706;49.036;12.112;2023-02-02T09:22:23;98130.25;;;0.43;100.00
21096;BME280;10706;49.036;12.112;2023-02-02T09:24:48;98130.41;;;0.41;100.00
21096;BME280;10706;49.036;12.112;2023-02-02T09:27:14;98132.56;;;0.46;100.00
21096;BME280;10706;49.036;12.112;2023-02-02T09:29:40;98137.81;;;0.46;100.00
21096;BME280;10706;49.036;12.112;2023-02-02T09:32:05;98145.34;;;0.49;100.00
21096;BME280;10706;49.036;12.112;2023-02-02T09:34:32;98142.56;;;0.50;100.00
21096;BME280;10706;49.036;12.112;2023-02-02T09:36:57;98144.22;;;0.51;100.00
21096;BME280;10706;49.036;12.112;2023-02-02T09:39:27;98149.00;;;0.56;100.00
21096;BME280;10706;49.036;12.112;2023-02-02T09:45:28;98144.03;;;0.45;100.00
21096;BME280;10706;49.036;12.112;2023-02-02T09:48:29;98153.88;;;0.43;100.00
21096;BME280;10706;49.036;12.112;2023-02-02T09:51:03;98149.28;;;0.45;100.00
21096;BME280;10706;49.036;12.112;2023-02-02T09:54:03;98154.72;;;0.51;100.00
21096;BME280;10706;49.036;12.112;2023-02-02T09:56:40;98152.28;;;0.58;100.00
21096;BME280;10706;49.036;12.112;2023-02-02T09:59:17;98155.09;;;0.65;100.00
21096;BME280;10706;49.036;12.112;2023-02-02T10:01:48;98155.59;;;0.68;100.00
21096;BME280;10706;49.036;12.112;2023-02-02T10:04:35;98158.22;;;0.68;100.00
21096;BME280;10706;49.036;12.112;2023-02-02T10:07:33;98163.44;;;0.60;100.00
21096;BME280;10706;49.036;12.112;2023-02-02T10:16:05;98161.16;;;0.65;100.00
21096;BME280;10706;49.036;12.112;2023-02-02T10:18:46;98157.56;;;0.74;100.00
21096;BME280;10706;49.036;12.112;2023-02-02T10:23:50;98153.13;;;0.58;100.00
21096;BME280;10706;49.036;12.112;2023-02-02T10:29:14;98157.91;;;0.71;100.00
21096;BME280;10706;49.036;12.112;2023-02-02T10:40:43;98156.44;;;0.77;100.00
21096;BME280;10706;49.036;12.112;2023-02-02T10:46:37;98151.34;;;0.75;100.00
21096;BME280;10706;49.036;12.112;2023-02-02T10:52:12;98141.94;;;0.73;100.00
21096;BME280;10706;49.036;12.112;2023-02-02T10:57:19;98149.53;;;0.68;100.00
21096;BME280;10706;49.036;12.112;2023-02-02T11:00:21;98158.03;;;0.62;100.00
21096;BME280;10706;49.036;12.112;2023-02-02T11:02:50;98141.94;;;0.65;100.00
21096;BME280;10706;49.036;12.112;2023-02-02T11:05:24;98140.78;;;0.67;100.00
21096;BME280;10706;49.036;12.112;2023-02-02T11:10:52;98144.88;;;0.62;100.00
21096;BME280;10706;49.036;12.112;2023-02-02T11:13:30;98141.94;;;0.56;100.00
21096;BME280;10706;49.036;12.112;2023-02-02T11:18:40;98141.44;;;0.61;100.00
21096;BME280;10706;49.036;12.112;2023-02-02T11:21:25;98143.41;;;0.59;100.00
21096;BME280;10706;49.036;12.112;2023-02-02T11:24:15;98136.50;;;0.58;100.00
21096;BME280;10706;49.036;12.112;2023-02-02T11:26:59;98139.47;;;0.55;100.00
21096;BME280;10706;49.036;12.112;2023-02-02T11:29:44;98138.31;;;0.57;100.00
21096;BME280;10706;49.036;12.112;2023-02-02T11:32:28;98141.75;;;0.58;100.00
21096;BME280;10706;49.036;12.112;2023-02-02T11:38:14;98135.69;;;0.57;100.00
21096;BME280;10706;49.036;12.112;2023-02-02T11:40:58;98137.00;;;0.53;100.00
21096;BME280;10706;49.036;12.112;2023-02-02T11:43:50;98137.50;;;0.57;100.00
21096;BME280;10706;49.036;12.112;2023-02-02T11:46:20;98137.34;;;0.58;100.00
21096;BME280;10706;49.036;12.112;2023-02-02T11:49:03;98130.59;;;0.56;100.00
21096;BME280;10706;49.036;12.112;2023-02-02T11:51:30;98126.84;;;0.58;100.00
21096;BME280;10706;49.036;12.112;2023-02-02T11:56:39;98136.03;;;0.71;100.00
21096;BME280;10706;49.036;12.112;2023-02-02T11:59:34;98143.75;;;0.64;100.00
21096;BME280;10706;49.036;12.112;2023-02-02T12:02:25;98133.25;;;0.64;100.00
21096;BME280;10706;49.036;12.112;2023-02-02T12:07:34;98125.06;;;0.75;100.00
21096;BME280;10706;49.036;12.112;2023-02-02T12:10:27;98122.75;;;0.64;100.00
21096;BME280;10706;49.036;12.112;2023-02-02T12:19:21;98121.78;;;0.82;100.00
21096;BME280;10706;49.036;12.112;2023-02-02T12:25:50;98120.13;;;0.97;100.00
21096;BME280;10706;49.036;12.112;2023-02-02T12:34:41;98121.78;;;0.98;100.00
21096;BME280;10706;49.036;12.112;2023-02-02T12:45:36;98128.19;;;1.12;100.00
21096;BME280;10706;49.036;12.112;2023-02-02T12:48:40;98120.47;;;1.02;100.00
21096;BME280;10706;49.036;12.112;2023-02-02T12:51:40;98128.84;;;1.06;100.00
21096;BME280;10706;49.036;12.112;2023-02-02T12:54:23;98127.19;;;1.13;100.00
21096;BME280;10706;49.036;12.112;2023-02-02T13:00:07;98123.91;;;1.19;100.00
21096;BME280;10706;49.036;12.112;2023-02-02T13:02:54;98135.41;;;1.26;100.00
21096;BME280;10706;49.036;12.112;2023-02-02T13:08:34;98141.84;;;1.07;100.00
21096;BME280;10706;49.036;12.112;2023-02-02T13:11:10;98143.94;;;0.95;100.00
21096;BME280;10706;49.036;12.112;2023-02-02T13:14:12;98138.03;;;0.93;100.00
21096;BME280;10706;49.036;12.112;2023-02-02T13:16:44;98130.47;;;0.99;100.00
21096;BME280;10706;49.036;12.112;2023-02-02T13:19:30;98138.72;;;1.04;100.00
21096;BME280;10706;49.036;12.112;2023-02-02T13:21:58;98141.00;;;1.07;100.00
21096;BME280;10706;49.036;12.112;2023-02-02T13:24:35;98142.63;;;1.16;100.00
21096;BME280;10706;49.036;12.112;2023-02-02T13:27:05;98142.47;;;1.01;100.00
21096;BME280;10706;49.036;12.112;2023-02-02T13:29:40;98151.03;;;1.11;100.00
21096;BME280;10706;49.036;12.112;2023-02-02T13:32:33;98141.97;;;0.97;100.00
21096;BME280;10706;49.036;12.112;2023-02-02T13:40:29;98158.41;;;1.08;100.00
21096;BME280;10706;49.036;12.112;2023-02-02T13:43:07;98156.63;;;1.00;100.00
21096;BME280;10706;49.036;12.112;2023-02-02T13:46:10;98172.22;;;1.10;100.00
21096;BME280;10706;49.036;12.112;2023-02-02T13:48:59;98171.38;;;0.93;100.00
21096;BME280;10706;49.036;12.112;2023-02-02T13:52:23;98183.41;;;1.04;100.00
21096;BME280;10706;49.036;12.112;2023-02-02T14:00:43;98187.81;;;0.95;100.00
21096;BME280;10706;49.036;12.112;2023-02-02T14:03:49;98195.06;;;1.01;100.00
21096;BME280;10706;49.036;12.112;2023-02-02T14:06:19;98194.75;;;0.96;100.00
21096;BME280;10706;49.036;12.112;2023-02-02T14:08:57;98199.34;;;1.02;100.00
21096;BME280;10706;49.036;12.112;2023-02-02T14:11:36;98195.66;;;0.70;100.00
21096;BME280;10706;49.036;12.112;2023-02-02T14:14:19;98204.19;;;0.64;100.00
21096;BME280;10706;49.036;12.112;2023-02-02T14:22:37;98209.84;;;0.43;100.00
21096;BME280;10706;49.036;12.112;2023-02-02T14:28:12;98220.34;;;0.35;100.00
21096;BME280;10706;49.036;12.112;2023-02-02T14:31:41;98229.66;;;0.21;100.00
21096;BME280;10706;49.036;12.112;2023-02-02T14:34:25;98236.41;;;0.32;100.00
21096;BME280;10706;49.036;12.112;2023-02-02T14:43:04;98254.59;;;-0.09;100.00
21096;BME280;10706;49.036;12.112;2023-02-02T14:48:39;98268.16;;;-0.14;100.00
21096;BME280;10706;49.036;12.112;2023-02-02T14:51:24;98276.03;;;-0.14;100.00
21096;BME280;10706;49.036;12.112;2023-02-02T14:54:06;98275.50;;;-0.17;100.00
21096;BME280;10706;49.036;12.112;2023-02-02T14:56:42;98282.41;;;-0.16;100.00
21096;BME280;10706;49.036;12.112;2023-02-02T14:59:34;98282.84;;;-0.21;100.00
21096;BME280;10706;49.036;12.112;2023-02-02T15:05:34;98289.91;;;-0.22;100.00
21096;BME280;10706;49.036;12.112;2023-02-02T15:08:25;98299.59;;;-0.22;100.00
21096;BME280;10706;49.036;12.112;2023-02-02T15:10:56;98307.31;;;-0.21;100.00
21096;BME280;10706;49.036;12.112;2023-02-02T15:13:34;98299.59;;;-0.22;100.00
21096;BME280;10706;49.036;12.112;2023-02-02T15:16:21;98308.13;;;-0.20;100.00
21096;BME280;10706;49.036;12.112;2023-02-02T15:19:03;98309.94;;;-0.21;100.00
21096;BME280;10706;49.036;12.112;2023-02-02T15:21:31;98313.25;;;-0.18;100.00
21096;BME280;10706;49.036;12.112;2023-02-02T15:23:59;98312.41;;;-0.19;100.00
21096;BME280;10706;49.036;12.112;2023-02-02T15:26:31;98319.16;;;-0.16;100.00
21096;BME280;10706;49.036;12.112;2023-02-02T15:29:06;98318.63;;;-0.20;100.00